Time;durP1;ratioP1;P1;durP2;ratioP2;P2;SDS_P1;SDS_P2;PMS_P1;PMS_P2;Temp;Humidity;BMP_temperature;BMP_pressure;BME280_temperature;BME280_humidity;BME280_pressure;Samples;Min_cycle;Max_cycle;Signal;HPM_P1;HPM_P2
2023/05/19 00:00:24;;;;;;;18.50;9.48;;;;;;;8.94;82.01;102633.78;4946566;28;20042;-87
2023/05/19 00:02:50;;;;;;;;;;;;;;;9.04;80.04;102646.81;4946006;28;20058;-88
2023/05/19 00:05:29;;;;;;;16.63;8.77;;;;;;;8.88;82.67;102626.78;4946418;28;19929;-88
2023/05/19 00:08:01;;;;;;;17.42;9.65;;;;;;;8.96;83.14;102648.44;4944751;28;20035;-88
2023/05/19 00:11:18;;;;;;;17.58;9.50;;;;;;;8.96;82.76;102653.59;4944811;28;20101;-88
2023/05/19 00:17:37;;;;;;;17.13;9.02;;;;;;;8.75;83.28;102619.72;4942503;28;20130;-88
2023/05/19 00:20:22;;;;;;;16.35;8.82;;;;;;;8.87;84.01;102645.72;4944423;28;20114;-88
2023/05/19 00:29:17;;;;;;;15.40;8.75;;;;;;;8.73;85.13;102614.53;4923634;29;20039;-87
2023/05/19 00:32:07;;;;;;;17.30;8.45;;;;;;;8.82;85.94;102636.19;4907556;29;20031;-87
2023/05/19 00:35:04;;;;;;;15.18;7.97;;;;;;;8.59;85.62;102597.13;4905796;29;20397;-87
2023/05/19 00:40:37;;;;;;;16.23;7.85;;;;;;;8.54;87.68;102589.31;4941727;28;20066;-88
2023/05/19 00:43:38;;;;;;;18.33;8.05;;;;;;;8.72;86.74;102619.72;4945538;28;20255;-87
2023/05/19 00:46:50;;;;;;;15.82;7.80;;;;;;;8.60;86.50;102596.25;4942466;28;20047;-88
2023/05/19 00:49:30;;;;;;;15.90;7.30;;;;;;;8.61;89.12;102614.38;4933818;28;20488;-87
2023/05/19 00:52:36;;;;;;;17.77;8.05;;;;;;;8.55;88.06;102609.13;4959682;28;20055;-88
2023/05/19 00:58:35;;;;;;;14.57;7.35;;;;;;;8.49;90.24;102603.88;4934075;28;20039;-87
2023/05/19 01:01:20;;;;;;;15.05;7.38;;;;;;;8.37;90.54;102588.22;4945042;28;20046;-87
2023/05/19 01:04:10;;;;;;;15.43;7.10;;;;;;;8.32;90.93;102580.41;4942163;28;20408;-88
2023/05/19 01:07:27;;;;;;;16.48;7.75;;;;;;;8.43;90.08;102605.53;4960703;28;20047;-87
2023/05/19 01:10:06;;;;;;;14.40;7.20;;;;;;;8.25;91.81;102591.50;4942630;28;20047;-87
2023/05/19 01:12:52;;;;;;;15.50;7.55;;;;;;;8.37;91.37;102616.66;4943801;28;20047;-88
2023/05/19 01:15:56;;;;;;;19.70;8.27;;;;;;;8.28;91.84;102600.97;4944419;28;20432;-88
2023/05/19 01:18:54;;;;;;;17.88;7.63;;;;;;;8.33;91.31;102614.84;4942674;28;20133;-88
2023/05/19 01:22:21;;;;;;;12.48;7.25;;;;;;;8.41;91.39;102622.72;4952546;28;20047;-88
2023/05/19 01:25:22;;;;;;;;;;;;;;;;;;;;;
2023/05/19 01:28:26;;;;;;;15.77;7.35;;;;;;;8.38;91.91;102618.41;4946044;28;20049;-88
2023/05/19 01:31:39;;;;;;;13.15;6.60;;;;;;;8.36;92.43;102625.25;4953872;28;20043;-88
2023/05/19 01:37:49;;;;;;;15.02;7.35;;;;;;;8.13;93.14;102590.44;4945024;28;20999;-87
2023/05/19 01:41:01;;;;;;;14.52;7.07;;;;;;;8.10;92.39;102592.97;4938381;28;20044;-88
2023/05/19 01:43:45;;;;;;;19.42;7.95;;;;;;;8.10;93.20;102592.97;4937775;28;20098;-88
2023/05/19 01:46:33;;;;;;;11.70;7.03;;;;;;;8.23;92.88;102624.19;4942257;28;20043;-88
2023/05/19 01:49:09;;;;;;;14.95;6.75;;;;;;;8.16;92.69;102606.84;4954117;28;20035;-88
2023/05/19 01:51:51;;;;;;;17.75;7.30;;;;;;;8.18;93.38;102618.09;4958614;28;20568;-88
2023/05/19 01:54:52;;;;;;;15.10;7.47;;;;;;;8.01;93.67;102580.78;4942781;28;20495;-88
2023/05/19 01:58:21;;;;;;;13.43;6.75;;;;;;;8.11;92.84;102600.75;4950540;28;20043;-87
2023/05/19 02:01:02;;;;;;;14.68;7.53;;;;;;;8.13;93.89;102600.75;4911477;28;20496;-88
2023/05/19 02:07:43;;;;;;;13.43;7.22;;;;;;;7.94;93.15;102574.66;4944926;28;20110;-87
2023/05/19 02:10:29;;;;;;;15.55;7.15;;;;;;;8.08;94.09;102594.66;4914121;28;20435;-88
2023/05/19 02:13:16;;;;;;;19.20;7.57;;;;;;;7.90;93.89;102562.56;4942960;28;20523;-88
2023/05/19 02:16:05;;;;;;;15.80;7.13;;;;;;;7.92;94.69;102576.34;4943060;28;20552;-88
2023/05/19 02:18:47;;;;;;;21.00;7.57;;;;;;;8.03;94.11;102578.25;4943000;28;20499;-88
2023/05/19 02:28:21;;;;;;;16.52;7.07;;;;;;;8.08;95.19;102600.69;4945323;28;20134;-88
2023/05/19 02:31:14;;;;;;;;;;;;;;;;;;;;;
2023/05/19 02:34:13;;;;;;;;;;;;;;;;;;;;;
2023/05/19 02:37:05;;;;;;;14.82;7.15;;;;;;;8.06;95.79;102591.19;4945574;28;20039;-87
2023/05/19 02:40:03;;;;;;;13.43;6.72;;;;;;;7.88;95.97;102561.69;4943488;28;20432;-88
2023/05/19 02:42:51;;;;;;;14.15;7.28;;;;;;;8.00;96.07;102580.75;4953073;28;20110;-88
2023/05/19 02:45:41;;;;;;;14.95;7.10;;;;;;;8.05;95.80;102579.16;4937058;28;20050;-88
2023/05/19 02:48:25;;;;;;;17.75;7.45;;;;;;;8.03;95.79;102579.13;4942192;28;20047;-88
2023/05/19 02:51:06;;;;;;;17.30;7.60;;;;;;;8.01;96.10;102583.38;4943338;28;20047;-87
2023/05/19 02:53:52;;;;;;;14.63;7.25;;;;;;;7.96;95.58;102573.84;4940937;28;20121;-88
2023/05/19 02:56:25;;;;;;;13.25;6.75;;;;;;;8.02;96.96;102582.53;4943776;28;20472;-88
2023/05/19 02:59:08;;;;;;;18.45;8.07;;;;;;;7.93;97.42;102570.34;4938074;28;20421;-88
2023/05/19 03:01:46;;;;;;;13.00;6.65;;;;;;;7.91;97.42;102561.69;4946336;28;20043;-87
2023/05/19 03:04:40;;;;;;;14.70;6.90;;;;;;;7.83;97.08;102549.56;4957606;28;20049;-88
2023/05/19 03:07:34;;;;;;;19.00;8.25;;;;;;;7.88;98.21;102556.50;4944527;28;20047;-88
2023/05/19 03:10:08;;;;;;;17.10;8.00;;;;;;;7.98;98.06;102570.44;4948493;28;20432;-88
2023/05/19 03:12:54;;;;;;;15.15;7.20;;;;;;;7.85;97.36;102555.59;4955540;28;20117;-88
2023/05/19 03:15:56;;;;;;;15.63;7.22;;;;;;;7.76;97.55;102553.75;4947197;28;20039;-88
2023/05/19 03:18:40;;;;;;;16.48;7.68;;;;;;;7.74;98.41;102546.81;4946183;28;20408;-88
2023/05/19 03:24:42;;;;;;;15.75;7.25;;;;;;;7.70;97.34;102547.63;4949103;28;20166;-88
2023/05/19 03:27:59;;;;;;;15.25;7.43;;;;;;;7.77;99.12;102565.81;4957426;28;20047;-87
2023/05/19 03:30:54;;;;;;;15.27;7.20;;;;;;;7.66;98.78;102551.00;4956841;28;20039;-88
2023/05/19 03:33:36;;;;;;;17.05;7.88;;;;;;;7.71;99.72;102560.53;4946726;28;20135;-87
2023/05/19 03:36:48;;;;;;;14.55;7.50;;;;;;;7.67;98.88;102552.72;4946452;28;20039;-88
2023/05/19 03:39:53;;;;;;;15.73;7.25;;;;;;;7.65;100.00;102560.44;4946849;28;20488;-88
2023/05/19 03:42:39;;;;;;;15.82;7.72;;;;;;;7.83;100.00;102590.84;4965897;28;20543;-88
2023/05/19 03:45:23;;;;;;;15.48;7.13;;;;;;;7.82;99.70;102584.81;4946266;28;20497;-88
2023/05/19 03:48:26;;;;;;;13.93;7.60;;;;;;;7.81;100.00;102590.81;4955167;28;20540;-87
2023/05/19 03:51:11;;;;;;;15.68;7.15;;;;;;;7.81;100.00;102590.81;4945654;28;20395;-88
2023/05/19 03:53:54;;;;;;;16.48;7.13;;;;;;;7.76;99.73;102583.84;4938799;28;20109;-88
2023/05/19 03:56:29;;;;;;;18.40;7.70;;;;;;;7.82;100.00;102604.59;4946276;28;20153;-88
2023/05/19 03:59:17;;;;;;;17.35;7.65;;;;;;;7.82;100.00;102602.03;4947911;28;21178;-88
2023/05/19 04:02:14;;;;;;;14.32;7.18;;;;;;;7.66;100.00;102576.78;4944926;28;20047;-88
2023/05/19 04:04:50;;;;;;;14.73;7.22;;;;;;;7.83;100.00;102606.34;4937923;28;20129;-88
2023/05/19 04:08:10;;;;;;;18.13;7.07;;;;;;;7.68;100.00;102581.16;4946671;28;20288;-88
2023/05/19 04:11:01;;;;;;;16.45;7.43;;;;;;;7.67;100.00;102575.97;4945513;28;20050;-88
2023/05/19 04:14:04;;;;;;;16.27;7.82;;;;;;;7.68;100.00;102572.53;4946596;28;20035;-88
2023/05/19 04:16:54;;;;;;;19.15;7.63;;;;;;;7.73;100.00;102582.09;4938023;28;20039;-88
2023/05/19 04:19:39;;;;;;;18.25;6.90;;;;;;;7.67;100.00;102565.63;4945314;28;20078;-88
2023/05/19 04:22:16;;;;;;;;;;;;;;;;;;;;;
2023/05/19 04:24:59;;;;;;;17.58;7.85;;;;;;;7.89;100.00;102598.69;4947796;28;20116;-88
2023/05/19 04:27:37;;;;;;;19.90;8.25;;;;;;;7.79;100.00;102581.31;4944788;28;20134;-89
2023/05/19 04:30:16;;;;;;;13.77;7.43;;;;;;;7.84;100.00;102592.59;4946298;28;20047;-88
2023/05/19 04:33:06;;;;;;;14.48;7.63;;;;;;;7.89;100.00;102596.97;4944276;28;20461;-87
2023/05/19 04:36:04;;;;;;;17.13;8.52;;;;;;;7.80;100.00;102575.31;4945811;28;20039;-87
2023/05/19 04:38:53;;;;;;;16.48;8.10;;;;;;;7.90;100.00;102597.84;4951732;23;21301;-88
2023/05/19 04:41:55;;;;;;;18.75;8.30;;;;;;;7.74;100.00;102563.19;4957299;28;20067;-88
2023/05/19 04:45:03;;;;;;;19.67;8.05;;;;;;;7.93;100.00;102596.16;4938751;28;21495;-88
2023/05/19 04:47:56;;;;;;;;;;;;;;;;;;;;;
2023/05/19 04:50:50;;;;;;;16.40;8.32;;;;;;;8.03;100.00;102594.59;4955603;28;20054;-88
2023/05/19 04:53:35;;;;;;;;;;;;;;;;;;;;;
2023/05/19 04:56:10;;;;;;;;;;;;;;;8.13;99.99;102588.72;4956761;28;20043;-88
2023/05/19 04:59:08;;;;;;;20.23;8.30;;;;;;;8.05;100.00;102574.81;4950794;28;19918;-88
2023/05/19 05:01:54;;;;;;;19.70;8.35;;;;;;;8.09;100.00;102568.00;4924358;28;20400;-88
2023/05/19 05:04:25;;;;;;;20.45;8.68;;;;;;;8.23;100.00;102579.41;4940165;28;21076;-87
2023/05/19 05:07:12;;;;;;;17.08;8.50;;;;;;;8.30;100.00;102581.22;4936440;28;20129;-88
2023/05/19 05:10:02;;;;;;;20.95;8.85;;;;;;;8.41;100.00;102583.97;4937243;28;20039;-88
2023/05/19 05:12:37;;;;;;;21.15;9.02;;;;;;;8.49;99.93;102585.81;4937711;28;20071;-89
2023/05/19 05:15:23;;;;;;;17.40;9.13;;;;;;;8.65;100.00;102603.25;4940620;28;20042;-88
2023/05/19 05:18:21;;;;;;;27.88;9.43;;;;;;;8.62;100.00;102567.00;4938111;28;20046;-88
2023/05/19 05:21:03;;;;;;;18.27;8.65;;;;;;;8.98;98.67;102597.59;4927818;28;20034;-88
2023/05/19 05:23:45;;;;;;;18.33;9.02;;;;;;;9.04;96.64;102589.91;4940494;28;20121;-88
2023/05/19 05:26:40;;;;;;;17.60;9.07;;;;;;;9.26;98.22;102577.19;4938664;28;20475;-89
2023/05/19 05:29:07;;;;;;;;;;;;;;;9.69;96.47;102597.41;4954650;28;20779;-89
2023/05/19 05:31:57;;;;;;;19.75;8.48;;;;;;;9.90;94.90;102594.97;4939495;28;21342;-89
2023/05/19 05:34:40;;;;;;;17.35;7.97;;;;;;;10.06;91.62;102595.97;4942428;28;20039;-89
2023/05/19 05:37:27;;;;;;;;;;;;;;;;;;;;;
2023/05/19 05:39:59;;;;;;;17.05;7.78;;;;;;;10.77;90.31;102582.53;4951706;28;20530;-89
2023/05/19 05:42:54;;;;;;;14.60;8.00;;;;;;;11.15;87.95;102582.63;4934708;28;20045;-89
2023/05/19 05:48:17;;;;;;;14.43;7.32;;;;;;;11.57;81.46;102587.00;4950402;28;20028;-89
2023/05/19 05:54:36;;;;;;;13.63;7.10;;;;;;;11.67;84.47;102570.53;4945074;28;20538;-89
2023/05/19 05:57:21;;;;;;;13.82;7.43;;;;;;;12.00;82.41;102592.19;4929511;28;20043;-88
2023/05/19 06:00:28;;;;;;;18.02;7.70;;;;;;;12.17;84.64;102598.22;4926975;28;20523;-89
2023/05/19 06:03:28;;;;;;;14.27;7.03;;;;;;;12.03;81.66;102569.66;4923769;28;20256;-87
2023/05/19 06:06:02;;;;;;;13.73;7.13;;;;;;;12.08;79.55;102577.44;4926859;28;20220;-88
2023/05/19 06:08:54;;;;;;;17.73;7.43;;;;;;;12.22;85.64;102586.94;4935659;28;20538;-88
2023/05/19 06:11:55;;;;;;;14.65;7.80;;;;;;;12.57;81.85;102599.81;4929549;28;20042;-88
2023/05/19 06:14:52;;;;;;;13.23;7.15;;;;;;;12.81;76.69;102603.22;4906461;28;20039;-88
2023/05/19 06:21:07;;;;;;;14.05;7.05;;;;;;;13.10;77.46;102611.72;4938782;28;20043;-89
2023/05/19 06:24:02;;;;;;;15.57;7.60;;;;;;;13.02;75.59;102584.88;4937453;28;20153;-88
2023/05/19 06:26:49;;;;;;;12.65;7.40;;;;;;;12.93;77.30;102606.63;4936104;28;20125;-89
2023/05/19 06:29:38;;;;;;;14.68;7.25;;;;;;;12.85;77.08;102611.00;4933968;28;20047;-88
2023/05/19 06:32:38;;;;;;;14.20;7.72;;;;;;;12.71;77.40;102601.50;4938152;28;20038;-89
2023/05/19 06:38:15;;;;;;;14.63;7.25;;;;;;;12.50;75.53;102613.72;4934664;28;20420;-89
2023/05/19 06:40:47;;;;;;;12.70;7.35;;;;;;;12.44;75.80;102599.88;4914672;28;20062;-89
2023/05/19 06:43:24;;;;;;;15.65;7.35;;;;;;;12.66;77.16;102611.94;4909867;29;20131;-89
2023/05/19 06:46:06;;;;;;;12.98;6.95;;;;;;;12.81;77.54;102578.06;4922713;29;20036;-88
2023/05/19 06:49:00;;;;;;;18.02;8.07;;;;;;;13.04;79.57;102610.00;4918423;29;20048;-88
2023/05/19 06:51:34;;;;;;;15.63;7.47;;;;;;;13.22;80.22;102588.25;4908972;29;20036;-88
2023/05/19 06:54:14;;;;;;;;;;;;;;;13.69;79.54;102600.94;4920690;29;20088;-89
2023/05/19 06:56:55;;;;;;;;;;;;;;;;;;;;;
2023/05/19 06:59:56;;;;;;;11.80;6.93;;;;;;;14.43;74.07;102575.00;4901553;29;20054;-89
2023/05/19 07:02:44;;;;;;;14.77;6.72;;;;;;;15.11;73.91;102581.03;4902748;29;20081;-87
2023/05/19 07:05:21;;;;;;;16.98;6.95;;;;;;;16.18;71.62;102596.69;4919808;28;20122;-88
2023/05/19 07:08:10;;;;;;;14.07;6.65;;;;;;;17.09;67.62;102583.47;4920300;29;20568;-89
2023/05/19 07:14:09;;;;;;;14.07;6.25;;;;;;;17.89;60.10;102575.38;4904453;29;20143;-88
2023/05/19 07:16:48;;;;;;;12.85;6.28;;;;;;;17.44;54.72;102572.16;4906821;29;20051;-88
2023/05/19 07:19:27;;;;;;;19.77;6.55;;;;;;;17.45;64.01;102598.34;4904715;29;20047;-88
2023/05/19 07:25:10;;;;;;;10.55;5.88;;;;;;;18.26;56.00;102606.75;4905847;29;20159;-89
2023/05/19 07:27:44;;;;;;;11.82;5.82;;;;;;;18.24;53.42;102591.03;4905399;29;20052;-88
2023/05/19 07:30:48;;;;;;;11.65;6.20;;;;;;;18.48;58.78;102576.38;4905063;29;20046;-88
2023/05/19 07:33:38;;;;;;;10.18;5.47;;;;;;;18.79;55.24;102576.34;4918339;29;20083;-88
2023/05/19 07:36:23;;;;;;;;;;;;;;;;;;;;;
2023/05/19 07:39:31;;;;;;;;;;;;;;;;;;;;;
2023/05/19 07:42:03;;;;;;;14.27;5.18;;;;;;;20.68;52.20;102570.75;4956144;28;20035;-89
2023/05/19 07:45:01;;;;;;;11.75;5.55;;;;;;;21.75;50.22;102591.06;4958218;28;20050;-87
2023/05/19 07:48:06;;;;;;;11.32;5.65;;;;;;;22.95;50.00;102573.28;4933155;28;20562;-85
2023/05/19 07:50:47;;;;;;;24.02;6.00;;;;;;;23.68;42.65;102567.03;4910582;28;20079;-86
2023/05/19 07:56:37;;;;;;;13.43;5.10;;;;;;;24.28;38.29;102586.88;4943290;28;20039;-86
2023/05/19 07:59:09;;;;;;;9.77;5.07;;;;;;;23.85;40.79;102559.09;4943454;28;20109;-85
2023/05/19 08:01:49;;;;;;;12.55;5.00;;;;;;;23.48;42.01;102562.75;4941895;28;20137;-85
2023/05/19 08:04:51;;;;;;;9.20;4.50;;;;;;;23.14;45.82;102582.06;4942254;28;20078;-86
2023/05/19 08:07:30;;;;;;;9.43;5.10;;;;;;;22.32;46.14;102571.81;4941588;28;20093;-86
2023/05/19 08:10:18;;;;;;;13.52;5.40;;;;;;;21.76;44.31;102580.47;4938844;28;20034;-86
2023/05/19 08:13:04;;;;;;;11.93;5.20;;;;;;;21.26;44.94;102567.59;4946764;28;20657;-86
2023/05/19 08:15:58;;;;;;;8.70;5.03;;;;;;;20.96;47.71;102581.09;4939726;28;20778;-86
2023/05/19 08:18:38;;;;;;;10.10;5.00;;;;;;;20.42;46.72;102574.38;4940060;28;20310;-86
2023/05/19 08:21:27;;;;;;;11.55;5.43;;;;;;;20.06;51.10;102550.25;4940514;28;20673;-86
2023/05/19 08:24:15;;;;;;;15.20;5.60;;;;;;;19.84;50.99;102563.31;4942498;28;20046;-85
2023/05/19 08:27:03;;;;;;;9.90;5.20;;;;;;;19.77;53.20;102569.69;4941447;28;20064;-85
2023/05/19 08:29:57;;;;;;;12.65;5.78;;;;;;;19.80;52.99;102564.31;4942102;28;20049;-86
2023/05/19 08:32:48;;;;;;;12.93;5.22;;;;;;;19.79;49.57;102540.69;4941915;28;20389;-86
2023/05/19 08:35:32;;;;;;;18.52;5.60;;;;;;;20.14;51.19;102556.06;4957714;28;20046;-85
2023/05/19 08:38:06;;;;;;;11.43;5.03;;;;;;;20.52;51.03;102557.31;4945734;28;21810;-86
2023/05/19 08:40:48;;;;;;;8.75;4.63;;;;;;;20.75;49.36;102536.19;4923057;28;20501;-86
2023/05/19 08:43:29;;;;;;;12.88;5.20;;;;;;;21.08;48.32;102544.56;4921634;29;20630;-86
2023/05/19 08:46:42;;;;;;;9.15;5.03;;;;;;;21.15;47.11;102527.53;4922646;29;20043;-86
2023/05/19 08:49:32;;;;;;;7.60;4.43;;;;;;;20.96;41.90;102515.19;4917380;29;20044;-86
2023/05/19 08:52:40;;;;;;;7.53;4.05;;;;;;;21.14;46.69;102530.28;4935931;29;20040;-86
2023/05/19 08:55:34;;;;;;;8.02;3.90;;;;;;;21.02;45.93;102507.00;4919376;29;20039;-86
2023/05/19 08:58:21;;;;;;;9.03;4.20;;;;;;;20.98;42.88;102527.38;4908318;29;20139;-86
2023/05/19 09:01:02;;;;;;;8.15;3.47;;;;;;;20.89;41.99;102525.97;4921080;29;20046;-86
2023/05/19 09:03:41;;;;;;;9.00;2.97;;;;;;;20.79;44.35;102505.31;4922072;28;20039;-86
2023/05/19 09:06:35;;;;;;;8.65;3.13;;;;;;;20.89;43.91;102517.19;4920479;29;20050;-86
2023/05/19 09:09:07;;;;;;;8.23;3.15;;;;;;;20.92;41.12;102532.91;4919744;29;20440;-86
2023/05/19 09:11:47;;;;;;;6.82;3.20;;;;;;;20.70;41.38;102516.22;4918033;29;20040;-86
2023/05/19 09:14:26;;;;;;;7.80;2.70;;;;;;;20.77;39.81;102501.88;4919942;29;20116;-88
2023/05/19 09:17:07;;;;;;;9.07;2.75;;;;;;;20.41;39.92;102493.63;4910901;29;20196;-85
2023/05/19 09:20:11;;;;;;;7.10;2.90;;;;;;;20.16;38.94;102492.81;4921135;29;20068;-86
2023/05/19 09:23:01;;;;;;;7.82;2.65;;;;;;;20.09;40.60;102522.00;4919662;29;20055;-86
2023/05/19 09:26:10;;;;;;;6.50;2.63;;;;;;;20.05;39.01;102523.06;4918723;29;20050;-87
2023/05/19 09:28:57;;;;;;;8.38;2.42;;;;;;;20.05;42.56;102491.47;4880187;29;20059;-87
2023/05/19 09:31:41;;;;;;;13.05;3.70;;;;;;;20.27;42.28;102506.44;4922745;29;20044;-87
2023/05/19 09:34:40;;;;;;;8.00;3.40;;;;;;;20.35;45.12;102491.22;4913712;29;20414;-87
2023/05/19 09:37:24;;;;;;;13.38;4.20;;;;;;;20.15;42.93;102491.09;4917419;29;20457;-87
2023/05/19 09:40:42;;;;;;;9.18;3.35;;;;;;;19.98;41.51;102479.44;4920688;28;20409;-87
2023/05/19 09:46:36;;;;;;;9.40;2.88;;;;;;;20.58;44.74;102503.53;4920520;29;20047;-87
2023/05/19 09:52:31;;;;;;;14.07;3.17;;;;;;;20.45;42.64;102496.09;4918775;29;20040;-87
2023/05/19 09:55:50;;;;;;;;;;;;;;;;;;;;;
2023/05/19 09:58:43;;;;;;;6.38;3.00;;;;;;;20.27;39.94;102491.50;4913652;29;20073;-87
2023/05/19 10:01:26;;;;;;;7.43;3.10;;;;;;;20.01;42.13;102500.38;4918708;29;20428;-86
2023/05/19 10:04:17;;;;;;;7.90;3.75;;;;;;;19.78;41.28;102479.31;4919473;29;20045;-87
2023/05/19 10:06:52;;;;;;;8.55;3.83;;;;;;;19.74;40.44;102506.63;4911344;29;20124;-87
2023/05/19 10:09:31;;;;;;;7.88;3.45;;;;;;;19.68;41.24;102520.84;4918903;28;20550;-87
2023/05/19 10:12:12;;;;;;;7.20;3.30;;;;;;;19.66;41.66;102514.78;4916386;29;20508;-87
2023/05/19 10:14:55;;;;;;;9.18;3.70;;;;;;;19.54;43.74;102485.41;4918098;29;20497;-87
2023/05/19 10:17:39;;;;;;;10.63;3.95;;;;;;;19.34;43.08;102488.69;4918259;29;20051;-87
2023/05/19 10:20:34;;;;;;;12.38;4.38;;;;;;;19.00;42.57;102482.84;4919926;29;20044;-87
2023/05/19 10:23:11;;;;;;;;;;;;;;;19.20;46.61;102490.94;4921504;29;20411;-89
2023/05/19 10:26:10;;;;;;;7.30;4.03;;;;;;;19.11;42.27;102478.94;4919160;29;20524;-90
2023/05/19 10:28:52;;;;;;;10.70;3.70;;;;;;;19.19;42.76;102473.44;4834727;29;20037;-89
2023/05/19 10:31:41;;;;;;;8.52;3.53;;;;;;;19.31;44.41;102471.25;4834333;29;20175;-90
2023/05/19 10:34:36;;;;;;;7.78;3.78;;;;;;;19.54;44.28;102488.03;4906187;29;20046;-86
2023/05/19 10:38:09;;;;;;;11.70;3.30;;;;;;;19.63;43.13;102487.72;4916524;29;20036;-87
2023/05/19 10:44:15;;;;;;;6.68;3.50;;;;;;;19.38;43.21;102476.31;4919718;29;20177;-87
2023/05/19 10:47:00;;;;;;;6.38;3.13;;;;;;;19.23;40.88;102473.31;4944513;28;20402;-87
2023/05/19 10:49:45;;;;;;;6.60;3.30;;;;;;;19.00;44.34;102444.28;4921335;28;20553;-87
2023/05/19 10:56:05;;;;;;;;;;;;;;;;;;;;;
2023/05/19 10:58:52;;;;;;;7.78;3.63;;;;;;;19.19;41.17;102460.28;4920026;29;20048;-86
2023/05/19 11:01:42;;;;;;;8.75;3.40;;;;;;;19.06;39.14;102469.50;4946778;28;20042;-87
2023/05/19 11:04:12;;;;;;;6.93;2.80;;;;;;;19.00;41.31;102461.81;4919819;29;20506;-87
2023/05/19 11:06:50;;;;;;;8.07;3.28;;;;;;;19.07;40.67;102463.34;4950490;28;20127;-87
2023/05/19 11:09:28;;;;;;;8.95;3.72;;;;;;;19.12;39.85;102464.88;4933544;29;20039;-87
2023/05/19 11:12:09;;;;;;;7.20;2.80;;;;;;;19.02;42.24;102436.34;4948605;28;20044;-86
2023/05/19 11:14:56;;;;;;;7.88;2.88;;;;;;;18.89;40.12;102439.38;4952648;28;20099;-87
2023/05/19 11:17:27;;;;;;;8.02;2.97;;;;;;;19.09;42.24;102469.41;4917416;29;20188;-87
2023/05/19 11:20:00;;;;;;;8.10;3.05;;;;;;;18.96;43.65;102434.78;4949722;28;20362;-87
2023/05/19 11:23:02;;;;;;;7.45;2.83;;;;;;;18.96;43.17;102441.81;4954351;28;20278;-87
2023/05/19 11:25:55;;;;;;;5.20;3.05;;;;;;;19.03;42.54;102466.97;4952144;28;20050;-87
2023/05/19 11:28:26;;;;;;;7.30;3.40;;;;;;;18.92;40.65;102470.81;4921986;28;20333;-87
2023/05/19 11:31:17;;;;;;;8.00;3.05;;;;;;;19.00;42.96;102475.81;4950269;28;20074;-87
2023/05/19 11:34:03;;;;;;;8.30;3.10;;;;;;;19.01;43.44;102460.91;4952571;28;20036;-86
2023/05/19 11:36:44;;;;;;;7.55;3.13;;;;;;;18.98;42.64;102453.09;4957223;28;20067;-87
2023/05/19 11:39:34;;;;;;;7.45;3.05;;;;;;;19.09;43.88;102458.88;4920248;29;20106;-87
2023/05/19 11:42:25;;;;;;;6.25;3.17;;;;;;;18.92;40.90;102464.69;4917777;29;20230;-87
2023/05/19 11:45:35;;;;;;;6.93;3.10;;;;;;;18.89;42.54;102447.28;4913807;29;20051;-87
2023/05/19 11:48:19;;;;;;;6.85;2.90;;;;;;;18.78;42.35;102430.97;4904390;29;20039;-87
2023/05/19 11:51:09;;;;;;;;;;;;;;;18.98;43.96;102435.56;4922501;28;20047;-87
2023/05/19 11:53:45;;;;;;;9.00;3.53;;;;;;;19.10;41.81;102442.22;4923063;29;20421;-87
2023/05/19 11:56:32;;;;;;;9.18;3.40;;;;;;;19.02;42.22;102410.94;4951456;28;20048;-88
2023/05/19 11:59:09;;;;;;;6.72;3.30;;;;;;;19.15;42.54;102432.41;4949871;28;20039;-87
2023/05/19 12:02:12;;;;;;;7.00;3.47;;;;;;;18.98;40.83;102409.28;4951899;28;20047;-87
2023/05/19 12:05:30;;;;;;;5.78;2.75;;;;;;;19.13;40.95;102431.56;4953332;28;20046;-87
2023/05/19 12:08:16;;;;;;;5.05;2.80;;;;;;;19.08;41.75;102401.97;4919507;29;20040;-88
2023/05/19 12:10:50;;;;;;;7.03;3.40;;;;;;;18.97;40.94;102410.19;4921595;29;20067;-87
2023/05/19 12:14:04;;;;;;;;;;;;;;;;;;;;;
2023/05/19 12:17:01;;;;;;;6.43;3.30;;;;;;;18.96;40.13;102402.38;4919239;29;20047;-88
2023/05/19 12:20:03;;;;;;;8.35;2.97;;;;;;;19.01;40.37;102409.19;4918102;29;20730;-88
2023/05/19 12:22:36;;;;;;;7.28;3.08;;;;;;;19.13;41.06;102418.44;4948958;28;20491;-87
2023/05/19 12:25:06;;;;;;;6.45;3.22;;;;;;;19.10;39.51;102405.41;4915687;28;20134;-88
2023/05/19 12:27:57;;;;;;;7.57;3.30;;;;;;;19.29;42.11;102424.91;4952667;28;20040;-89
2023/05/19 12:30:51;;;;;;;6.32;2.80;;;;;;;19.24;40.89;102411.88;4918712;29;20048;-90
2023/05/19 12:34:01;;;;;;;8.77;3.30;;;;;;;19.29;39.14;102409.13;4909294;29;20040;-88
2023/05/19 12:37:11;;;;;;;8.95;2.85;;;;;;;19.08;41.23;102384.44;4904503;29;20052;-88
2023/05/19 12:40:17;;;;;;;9.48;3.47;;;;;;;19.19;42.20;102392.78;4924693;28;20062;-88
2023/05/19 12:43:02;;;;;;;5.68;2.92;;;;;;;19.27;40.11;102403.03;4935795;28;20039;-87
2023/05/19 12:48:55;;;;;;;7.03;3.00;;;;;;;18.97;40.21;102373.41;4957153;28;20090;-88
2023/05/19 12:51:56;;;;;;;7.73;3.47;;;;;;;19.17;41.36;102375.38;4944850;28;20599;-88
2023/05/19 12:55:17;;;;;;;;;;;;;;;;;;;;;
2023/05/19 12:58:10;;;;;;;7.72;2.85;;;;;;;19.36;41.53;102393.97;4913026;29;20035;-88
2023/05/19 13:01:00;;;;;;;7.22;3.08;;;;;;;19.04;39.70;102392.47;4927299;28;20140;-88
2023/05/19 13:03:45;;;;;;;7.50;3.08;;;;;;;18.87;41.42;102391.28;4935336;28;20046;-88
2023/05/19 13:06:18;;;;;;;;;;;;;;;19.06;42.61;102390.63;4941461;28;20046;-87
2023/05/19 13:09:08;;;;;;;;;;;;;;;;;;;;;
2023/05/19 13:11:43;;;;;;;8.93;3.42;;;;;;;18.93;40.50;102367.41;4960065;28;20043;-88
2023/05/19 13:14:26;;;;;;;6.95;3.13;;;;;;;18.84;41.94;102365.09;4942285;28;20038;-87
2023/05/19 13:17:10;;;;;;;8.82;3.40;;;;;;;18.96;41.23;102378.75;4936718;28;20043;-88
2023/05/19 13:19:50;;;;;;;6.43;2.88;;;;;;;18.94;42.27;102384.91;4941335;28;20278;-88
2023/05/19 13:22:53;;;;;;;6.03;3.03;;;;;;;19.02;40.43;102374.13;4937853;28;20039;-90
2023/05/19 13:25:36;;;;;;;8.23;3.35;;;;;;;19.02;41.46;102368.88;4954890;28;20050;-89
2023/05/19 13:28:11;;;;;;;9.02;3.95;;;;;;;19.10;39.26;102377.34;4940797;28;20542;-89
2023/05/19 13:30:59;;;;;;;;;;;;;;;;;;;;;
2023/05/19 13:34:06;;;;;;;8.82;3.25;;;;;;;19.02;41.85;102344.34;4958797;28;21511;-88
2023/05/19 13:37:00;;;;;;;9.55;3.53;;;;;;;19.14;40.51;102359.69;4928761;28;20034;-87
2023/05/19 13:39:32;;;;;;;;;;;;;;;19.27;42.87;102356.56;4940318;28;20039;-88
2023/05/19 13:42:27;;;;;;;9.15;3.45;;;;;;;19.26;42.64;102359.25;4942990;28;19921;-88
2023/05/19 13:45:18;;;;;;;6.45;3.55;;;;;;;19.32;40.57;102367.78;4941503;28;20105;-89
2023/05/19 13:48:00;;;;;;;7.43;3.42;;;;;;;19.19;41.54;102355.97;4937626;28;20041;-89
2023/05/19 13:51:04;;;;;;;6.60;3.67;;;;;;;19.11;42.11;102341.38;4938620;28;20959;-88
2023/05/19 13:54:13;;;;;;;11.45;3.88;;;;;;;19.20;41.13;102347.19;4937687;28;20557;-89
2023/05/19 13:57:11;;;;;;;8.90;3.35;;;;;;;19.31;40.05;102352.91;4938108;28;20035;-90
2023/05/19 14:00:10;;;;;;;7.80;3.75;;;;;;;19.25;39.69;102339.97;4938210;28;20492;-88
2023/05/19 14:02:53;;;;;;;8.63;3.85;;;;;;;19.39;41.47;102351.78;4939264;28;20047;-89
2023/05/19 14:05:36;;;;;;;8.70;3.70;;;;;;;19.27;41.00;102329.41;4933501;28;20043;-88
2023/05/19 14:08:20;;;;;;;7.25;3.63;;;;;;;19.33;40.92;102335.31;4954360;28;20162;-89
2023/05/19 14:11:13;;;;;;;8.30;3.63;;;;;;;19.27;40.28;102329.41;4952704;28;20277;-89
2023/05/19 14:13:45;;;;;;;8.10;3.72;;;;;;;19.38;40.16;102353.53;4949259;28;20054;-88
2023/05/19 14:16:20;;;;;;;5.47;3.53;;;;;;;19.38;41.95;102342.19;4940273;28;20043;-89
2023/05/19 14:19:08;;;;;;;9.52;3.30;;;;;;;19.47;42.62;102337.47;4936884;28;21000;-89
2023/05/19 14:22:09;;;;;;;8.50;3.30;;;;;;;19.47;41.38;102334.84;4950222;28;20050;-89
2023/05/19 14:24:38;;;;;;;11.60;3.90;;;;;;;19.49;40.18;102347.94;4946682;28;20046;-89
2023/05/19 14:27:20;;;;;;;9.02;3.63;;;;;;;19.45;41.61;102355.03;4937473;28;20047;-89
2023/05/19 14:30:23;;;;;;;8.63;3.65;;;;;;;19.19;39.81;102326.19;4956574;28;20138;-89
2023/05/19 14:33:16;;;;;;;9.25;3.40;;;;;;;19.30;41.13;102329.31;4939875;28;20424;-89
2023/05/19 14:35:48;;;;;;;8.48;3.75;;;;;;;19.20;39.57;102312.16;4939629;28;20061;-89
2023/05/19 14:38:38;;;;;;;5.85;3.17;;;;;;;19.38;40.65;102347.47;4943621;28;20039;-89